sensor_id;sensor_type;location;lat;lon;timestamp;pressure;altitude;pressure_sealevel;temperature;humidity
58471;BME280;44258;51.288;12.068;2022-10-30T00:01:38;100801.75;;;14.58;62.34
58471;BME280;44258;51.288;12.068;2022-10-30T00:04:04;100797.38;;;14.55;62.38
58471;BME280;44258;51.288;12.068;2022-10-30T00:06:31;100796.81;;;14.50;62.45
58471;BME280;44258;51.288;12.068;2022-10-30T00:08:57;100803.41;;;14.46;62.63
58471;BME280;44258;51.288;12.068;2022-10-30T00:11:24;100811.72;;;14.43;62.57
58471;BME280;44258;51.288;12.068;2022-10-30T00:13:50;100812.78;;;14.40;62.60
58471;BME280;44258;51.288;12.068;2022-10-30T00:16:21;100805.84;;;14.36;62.66
58471;BME280;44258;51.288;12.068;2022-10-30T00:18:47;100809.22;;;14.40;62.46
58471;BME280;44258;51.288;12.068;2022-10-30T00:21:14;100817.34;;;14.40;62.39
58471;BME280;44258;51.288;12.068;2022-10-30T00:23:44;100798.47;;;14.38;62.54
58471;BME280;44258;51.288;12.068;2022-10-30T00:26:11;100807.06;;;14.45;62.46
58471;BME280;44258;51.288;12.068;2022-10-30T00:28:38;100809.47;;;14.49;62.31
58471;BME280;44258;51.288;12.068;2022-10-30T00:31:05;100803.97;;;14.51;62.40
58471;BME280;44258;51.288;12.068;2022-10-30T00:33:33;100801.34;;;14.49;62.50
58471;BME280;44258;51.288;12.068;2022-10-30T00:36:00;100809.69;;;14.46;62.44
58471;BME280;44258;51.288;12.068;2022-10-30T00:38:27;100796.25;;;14.45;62.53
58471;BME280;44258;51.288;12.068;2022-10-30T00:40:53;100802.41;;;14.47;62.59
58471;BME280;44258;51.288;12.068;2022-10-30T00:43:29;100788.34;;;14.42;62.78
58471;BME280;44258;51.288;12.068;2022-10-30T00:45:58;100786.28;;;14.45;62.61
58471;BME280;44258;51.288;12.068;2022-10-30T00:48:27;100775.44;;;14.45;62.65
58471;BME280;44258;51.288;12.068;2022-10-30T00:50:56;100773.66;;;14.31;62.88
58471;BME280;44258;51.288;12.068;2022-10-30T00:53:24;100775.75;;;14.26;62.84
58471;BME280;44258;51.288;12.068;2022-10-30T00:55:54;100765.34;;;14.20;62.98
58471;BME280;44258;51.288;12.068;2022-10-30T00:58:28;100766.81;;;14.11;63.09
58471;BME280;44258;51.288;12.068;2022-10-30T01:00:57;100766.72;;;14.13;62.95
58471;BME280;44258;51.288;12.068;2022-10-30T01:03:25;100772.00;;;14.14;62.89
58471;BME280;44258;51.288;12.068;2022-10-30T01:05:56;100765.72;;;14.14;62.80
58471;BME280;44258;51.288;12.068;2022-10-30T01:08:23;100759.16;;;14.18;62.69
58471;BME280;44258;51.288;12.068;2022-10-30T01:13:26;100748.19;;;14.07;63.07
58471;BME280;44258;51.288;12.068;2022-10-30T01:16:10;100750.50;;;13.99;63.49
58471;BME280;44258;51.288;12.068;2022-10-30T01:18:45;100743.44;;;13.96;63.57
58471;BME280;44258;51.288;12.068;2022-10-30T01:21:38;100741.91;;;13.92;63.82
58471;BME280;44258;51.288;12.068;2022-10-30T01:24:24;100739.00;;;13.95;63.57
58471;BME280;44258;51.288;12.068;2022-10-30T01:27:04;100748.56;;;14.01;63.76
58471;BME280;44258;51.288;12.068;2022-10-30T01:29:40;100749.03;;;14.07;63.38
58471;BME280;44258;51.288;12.068;2022-10-30T01:32:25;100741.88;;;14.06;63.34
58471;BME280;44258;51.288;12.068;2022-10-30T01:34:58;100739.09;;;14.08;63.08
58471;BME280;44258;51.288;12.068;2022-10-30T01:37:32;100733.88;;;14.05;63.23
58471;BME280;44258;51.288;12.068;2022-10-30T01:40:04;100738.81;;;13.98;63.42
58471;BME280;44258;51.288;12.068;2022-10-30T01:42:44;100731.75;;;13.95;63.29
58471;BME280;44258;51.288;12.068;2022-10-30T01:45:14;100726.25;;;13.97;63.19
58471;BME280;44258;51.288;12.068;2022-10-30T01:47:52;100727.34;;;13.94;63.56
58471;BME280;44258;51.288;12.068;2022-10-30T01:50:31;100729.75;;;13.99;63.53
58471;BME280;44258;51.288;12.068;2022-10-30T01:53:10;100724.03;;;14.04;63.27
58471;BME280;44258;51.288;12.068;2022-10-30T01:55:47;100721.13;;;14.07;63.00
58471;BME280;44258;51.288;12.068;2022-10-30T01:58:21;100718.53;;;14.05;63.01
58471;BME280;44258;51.288;12.068;2022-10-30T02:00:55;100707.03;;;14.02;63.05
58471;BME280;44258;51.288;12.068;2022-10-30T02:03:22;100712.44;;;14.02;63.26
58471;BME280;44258;51.288;12.068;2022-10-30T02:05:51;100704.31;;;14.02;63.26
58471;BME280;44258;51.288;12.068;2022-10-30T02:08:20;100705.31;;;14.01;63.10
58471;BME280;44258;51.288;12.068;2022-10-30T02:10:48;100703.00;;;13.94;63.30
58471;BME280;44258;51.288;12.068;2022-10-30T02:13:16;100699.25;;;13.83;63.49
58471;BME280;44258;51.288;12.068;2022-10-30T02:15:44;100704.94;;;13.64;63.83
58471;BME280;44258;51.288;12.068;2022-10-30T02:18:12;100709.84;;;13.71;63.49
58471;BME280;44258;51.288;12.068;2022-10-30T02:20:40;100713.63;;;13.69;63.70
58471;BME280;44258;51.288;12.068;2022-10-30T02:23:07;100709.38;;;13.65;64.21
58471;BME280;44258;51.288;12.068;2022-10-30T02:25:37;100713.72;;;13.67;64.24
58471;BME280;44258;51.288;12.068;2022-10-30T02:28:04;100714.41;;;13.71;64.14
58471;BME280;44258;51.288;12.068;2022-10-30T02:30:30;100719.41;;;13.77;64.36
58471;BME280;44258;51.288;12.068;2022-10-30T02:33:00;100726.38;;;13.67;64.01
58471;BME280;44258;51.288;12.068;2022-10-30T02:35:28;100722.22;;;13.47;64.53
58471;BME280;44258;51.288;12.068;2022-10-30T02:37:56;100714.88;;;13.49;64.33
58471;BME280;44258;51.288;12.068;2022-10-30T02:40:22;100715.94;;;13.46;64.36
58471;BME280;44258;51.288;12.068;2022-10-30T02:42:53;100711.31;;;13.34;65.04
58471;BME280;44258;51.288;12.068;2022-10-30T02:45:20;100713.22;;;13.32;65.59
58471;BME280;44258;51.288;12.068;2022-10-30T02:47:47;100716.88;;;13.31;65.91
58471;BME280;44258;51.288;12.068;2022-10-30T02:50:14;100716.50;;;13.37;65.75
58471;BME280;44258;51.288;12.068;2022-10-30T02:52:40;100710.84;;;13.42;65.38
58471;BME280;44258;51.288;12.068;2022-10-30T02:55:08;100709.00;;;13.42;65.40
58471;BME280;44258;51.288;12.068;2022-10-30T02:57:35;100708.63;;;13.48;65.28
58471;BME280;44258;51.288;12.068;2022-10-30T03:00:03;100711.03;;;13.53;65.36
58471;BME280;44258;51.288;12.068;2022-10-30T03:02:29;100706.22;;;13.58;65.34
58471;BME280;44258;51.288;12.068;2022-10-30T03:04:56;100712.84;;;13.67;65.18
58471;BME280;44258;51.288;12.068;2022-10-30T03:07:22;100713.44;;;13.58;64.70
58471;BME280;44258;51.288;12.068;2022-10-30T03:09:49;100709.00;;;13.57;64.82
58471;BME280;44258;51.288;12.068;2022-10-30T03:12:17;100712.47;;;13.59;64.50
58471;BME280;44258;51.288;12.068;2022-10-30T03:14:44;100711.41;;;13.61;64.62
58471;BME280;44258;51.288;12.068;2022-10-30T03:17:10;100698.88;;;13.60;64.08
58471;BME280;44258;51.288;12.068;2022-10-30T03:19:37;100696.34;;;13.57;64.23
58471;BME280;44258;51.288;12.068;2022-10-30T03:22:05;100697.41;;;13.54;64.12
58471;BME280;44258;51.288;12.068;2022-10-30T03:24:32;100702.81;;;13.54;64.12
58471;BME280;44258;51.288;12.068;2022-10-30T03:26:59;100704.94;;;13.49;64.02
58471;BME280;44258;51.288;12.068;2022-10-30T03:29:27;100697.63;;;13.21;64.20
58471;BME280;44258;51.288;12.068;2022-10-30T03:31:54;100694.69;;;13.26;64.03
58471;BME280;44258;51.288;12.068;2022-10-30T03:34:20;100697.56;;;13.23;64.14
58471;BME280;44258;51.288;12.068;2022-10-30T03:36:47;100700.28;;;13.23;64.14
58471;BME280;44258;51.288;12.068;2022-10-30T03:39:13;100698.44;;;13.23;64.01
58471;BME280;44258;51.288;12.068;2022-10-30T03:41:40;100693.75;;;13.11;64.17
58471;BME280;44258;51.288;12.068;2022-10-30T03:44:07;100696.06;;;13.03;64.40
58471;BME280;44258;51.288;12.068;2022-10-30T03:46:35;100696.94;;;13.03;64.62
58471;BME280;44258;51.288;12.068;2022-10-30T03:49:02;100692.91;;;13.10;64.50
58471;BME280;44258;51.288;12.068;2022-10-30T03:51:29;100698.13;;;13.13;64.43
58471;BME280;44258;51.288;12.068;2022-10-30T03:53:55;100700.22;;;13.08;64.36
58471;BME280;44258;51.288;12.068;2022-10-30T03:56:22;100698.97;;;13.00;64.48
58471;BME280;44258;51.288;12.068;2022-10-30T03:58:48;100701.56;;;13.01;64.49
58471;BME280;44258;51.288;12.068;2022-10-30T04:01:15;100703.13;;;13.05;64.40
58471;BME280;44258;51.288;12.068;2022-10-30T04:03:43;100701.28;;;13.06;64.34
58471;BME280;44258;51.288;12.068;2022-10-30T04:06:10;100701.84;;;13.11;64.55
58471;BME280;44258;51.288;12.068;2022-10-30T04:08:37;100702.91;;;13.08;65.33
58471;BME280;44258;51.288;12.068;2022-10-30T04:11:08;100699.16;;;13.11;65.56
58471;BME280;44258;51.288;12.068;2022-10-30T04:13:35;100694.34;;;13.16;65.46
58471;BME280;44258;51.288;12.068;2022-10-30T04:16:02;100697.56;;;13.23;65.20
58471;BME280;44258;51.288;12.068;2022-10-30T04:18:29;100691.22;;;13.24;65.28
58471;BME280;44258;51.288;12.068;2022-10-30T04:20:58;100692.19;;;13.23;65.60
58471;BME280;44258;51.288;12.068;2022-10-30T04:23:25;100692.88;;;13.26;65.17
58471;BME280;44258;51.288;12.068;2022-10-30T04:25:52;100704.69;;;13.09;64.84
58471;BME280;44258;51.288;12.068;2022-10-30T04:28:21;100702.75;;;13.11;64.78
58471;BME280;44258;51.288;12.068;2022-10-30T04:30:48;100699.28;;;13.09;64.66
58471;BME280;44258;51.288;12.068;2022-10-30T04:33:14;100693.09;;;13.07;64.92
58471;BME280;44258;51.288;12.068;2022-10-30T04:35:41;100689.25;;;13.11;64.78
58471;BME280;44258;51.288;12.068;2022-10-30T04:38:11;100688.09;;;13.15;64.92
58471;BME280;44258;51.288;12.068;2022-10-30T04:40:39;100691.47;;;13.19;64.55
58471;BME280;44258;51.288;12.068;2022-10-30T04:43:08;100690.59;;;13.19;64.31
58471;BME280;44258;51.288;12.068;2022-10-30T04:45:35;100695.06;;;13.20;64.42
58471;BME280;44258;51.288;12.068;2022-10-30T04:48:04;100696.84;;;13.19;64.52
58471;BME280;44258;51.288;12.068;2022-10-30T04:50:30;100704.97;;;13.19;64.26
58471;BME280;44258;51.288;12.068;2022-10-30T04:52:58;100705.16;;;13.16;64.70
58471;BME280;44258;51.288;12.068;2022-10-30T04:55:27;100701.94;;;13.25;64.85
58471;BME280;44258;51.288;12.068;2022-10-30T04:57:55;100701.34;;;13.34;64.49
58471;BME280;44258;51.288;12.068;2022-10-30T05:00:21;100697.97;;;13.45;64.41
58471;BME280;44258;51.288;12.068;2022-10-30T05:02:50;100693.19;;;13.50;64.08
58471;BME280;44258;51.288;12.068;2022-10-30T05:05:16;100703.97;;;13.50;64.18
58471;BME280;44258;51.288;12.068;2022-10-30T05:07:43;100698.56;;;13.50;64.10
58471;BME280;44258;51.288;12.068;2022-10-30T05:10:10;100701.28;;;13.50;64.02
58471;BME280;44258;51.288;12.068;2022-10-30T05:12:40;100706.59;;;13.52;64.25
58471;BME280;44258;51.288;12.068;2022-10-30T05:15:08;100702.63;;;13.58;63.94
58471;BME280;44258;51.288;12.068;2022-10-30T05:17:34;100698.09;;;13.58;63.99
58471;BME280;44258;51.288;12.068;2022-10-30T05:20:01;100713.16;;;13.48;64.11
58471;BME280;44258;51.288;12.068;2022-10-30T05:22:28;100714.19;;;13.45;64.29
58471;BME280;44258;51.288;12.068;2022-10-30T05:24:55;100707.47;;;13.52;64.28
58471;BME280;44258;51.288;12.068;2022-10-30T05:27:21;100700.13;;;13.54;64.36
58471;BME280;44258;51.288;12.068;2022-10-30T05:29:49;100719.50;;;13.61;64.43
58471;BME280;44258;51.288;12.068;2022-10-30T05:32:16;100722.03;;;13.64;64.53
58471;BME280;44258;51.288;12.068;2022-10-30T05:34:44;100724.75;;;13.64;64.26
58471;BME280;44258;51.288;12.068;2022-10-30T05:37:10;100720.97;;;13.67;64.26
58471;BME280;44258;51.288;12.068;2022-10-30T05:39:37;100730.53;;;13.72;64.21
58471;BME280;44258;51.288;12.068;2022-10-30T05:42:04;100722.03;;;13.64;64.24
58471;BME280;44258;51.288;12.068;2022-10-30T05:44:30;100719.34;;;13.64;64.40
58471;BME280;44258;51.288;12.068;2022-10-30T05:46:58;100718.56;;;13.62;64.42
58471;BME280;44258;51.288;12.068;2022-10-30T05:49:25;100713.72;;;13.67;64.51
58471;BME280;44258;51.288;12.068;2022-10-30T05:51:51;100727.44;;;13.79;64.70
58471;BME280;44258;51.288;12.068;2022-10-30T05:54:18;100723.19;;;13.74;64.62
58471;BME280;44258;51.288;12.068;2022-10-30T05:56:44;100736.50;;;13.78;64.49
58471;BME280;44258;51.288;12.068;2022-10-30T05:59:11;100740.66;;;13.83;64.54
58471;BME280;44258;51.288;12.068;2022-10-30T06:01:37;100732.63;;;13.82;64.34
58471;BME280;44258;51.288;12.068;2022-10-30T06:04:05;100742.75;;;13.78;64.33
58471;BME280;44258;51.288;12.068;2022-10-30T06:06:32;100754.72;;;13.45;65.11
58471;BME280;44258;51.288;12.068;2022-10-30T06:08:58;100757.63;;;13.42;65.38
58471;BME280;44258;51.288;12.068;2022-10-30T06:11:25;100746.44;;;13.48;65.10
58471;BME280;44258;51.288;12.068;2022-10-30T06:13:51;100752.78;;;13.62;65.00
58471;BME280;44258;51.288;12.068;2022-10-30T06:16:18;100753.19;;;13.70;64.75
58471;BME280;44258;51.288;12.068;2022-10-30T06:18:45;100758.13;;;13.78;64.65
58471;BME280;44258;51.288;12.068;2022-10-30T06:21:13;100756.78;;;13.85;64.58
58471;BME280;44258;51.288;12.068;2022-10-30T06:23:39;100761.72;;;13.92;64.36
58471;BME280;44258;51.288;12.068;2022-10-30T06:26:06;100767.28;;;13.89;64.40
58471;BME280;44258;51.288;12.068;2022-10-30T06:28:36;100766.22;;;13.92;64.30
58471;BME280;44258;51.288;12.068;2022-10-30T06:31:02;100763.44;;;13.93;64.13
58471;BME280;44258;51.288;12.068;2022-10-30T06:33:29;100766.91;;;13.95;64.23
58471;BME280;44258;51.288;12.068;2022-10-30T06:35:56;100769.53;;;13.97;64.27
58471;BME280;44258;51.288;12.068;2022-10-30T06:38:26;100768.53;;;13.98;64.44
58471;BME280;44258;51.288;12.068;2022-10-30T06:40:52;100763.63;;;14.05;64.07
58471;BME280;44258;51.288;12.068;2022-10-30T06:43:19;100762.47;;;14.09;64.26
58471;BME280;44258;51.288;12.068;2022-10-30T06:45:45;100762.16;;;14.13;64.02
58471;BME280;44258;51.288;12.068;2022-10-30T06:48:12;100765.06;;;14.10;64.04
58471;BME280;44258;51.288;12.068;2022-10-30T06:50:39;100770.84;;;14.04;64.40
58471;BME280;44258;51.288;12.068;2022-10-30T06:53:05;100770.47;;;14.10;64.48
58471;BME280;44258;51.288;12.068;2022-10-30T06:55:33;100777.34;;;14.02;64.40
58471;BME280;44258;51.288;12.068;2022-10-30T06:57:59;100765.19;;;14.09;64.46
58471;BME280;44258;51.288;12.068;2022-10-30T07:00:26;100769.22;;;14.16;64.13
58471;BME280;44258;51.288;12.068;2022-10-30T07:02:57;100770.97;;;14.17;64.37
58471;BME280;44258;51.288;12.068;2022-10-30T07:05:26;100777.50;;;14.27;64.26
58471;BME280;44258;51.288;12.068;2022-10-30T07:07:55;100782.34;;;14.37;64.14
58471;BME280;44258;51.288;12.068;2022-10-30T07:10:21;100775.28;;;14.48;64.15
58471;BME280;44258;51.288;12.068;2022-10-30T07:12:53;100776.81;;;14.52;64.01
58471;BME280;44258;51.288;12.068;2022-10-30T07:15:20;100775.53;;;14.58;63.97
58471;BME280;44258;51.288;12.068;2022-10-30T07:17:51;100771.84;;;14.59;64.24
58471;BME280;44258;51.288;12.068;2022-10-30T07:20:19;100771.25;;;14.68;64.16
58471;BME280;44258;51.288;12.068;2022-10-30T07:22:45;100769.09;;;14.73;64.25
58471;BME280;44258;51.288;12.068;2022-10-30T07:25:12;100764.94;;;14.82;64.02
58471;BME280;44258;51.288;12.068;2022-10-30T07:27:42;100773.91;;;14.83;64.26
58471;BME280;44258;51.288;12.068;2022-10-30T07:30:16;100775.03;;;14.93;64.19
58471;BME280;44258;51.288;12.068;2022-10-30T07:32:43;100783.84;;;15.09;64.01
58471;BME280;44258;51.288;12.068;2022-10-30T07:35:10;100781.72;;;15.27;64.00
58471;BME280;44258;51.288;12.068;2022-10-30T07:37:40;100786.22;;;15.41;64.16
58471;BME280;44258;51.288;12.068;2022-10-30T07:40:07;100788.84;;;15.56;63.66
58471;BME280;44258;51.288;12.068;2022-10-30T07:42:33;100783.00;;;15.62;63.48
58471;BME280;44258;51.288;12.068;2022-10-30T07:45:00;100782.56;;;15.68;63.57
58471;BME280;44258;51.288;12.068;2022-10-30T07:47:28;100784.69;;;15.75;63.61
58471;BME280;44258;51.288;12.068;2022-10-30T07:49:55;100788.09;;;15.92;63.30
58471;BME280;44258;51.288;12.068;2022-10-30T07:52:21;100787.31;;;16.03;63.04
58471;BME280;44258;51.288;12.068;2022-10-30T07:54:51;100778.84;;;16.07;63.02
58471;BME280;44258;51.288;12.068;2022-10-30T07:57:17;100785.22;;;16.19;62.42
58471;BME280;44258;51.288;12.068;2022-10-30T07:59:44;100789.13;;;16.15;62.07
58471;BME280;44258;51.288;12.068;2022-10-30T08:02:10;100792.81;;;16.14;62.33
58471;BME280;44258;51.288;12.068;2022-10-30T08:04:38;100795.66;;;16.12;62.50
58471;BME280;44258;51.288;12.068;2022-10-30T08:07:05;100790.75;;;16.18;62.07
58471;BME280;44258;51.288;12.068;2022-10-30T08:09:31;100791.63;;;16.18;62.08
58471;BME280;44258;51.288;12.068;2022-10-30T08:11:58;100794.97;;;16.22;62.12
58471;BME280;44258;51.288;12.068;2022-10-30T08:14:25;100795.72;;;16.24;62.21
58471;BME280;44258;51.288;12.068;2022-10-30T08:16:51;100794.13;;;16.21;62.19
58471;BME280;44258;51.288;12.068;2022-10-30T08:19:18;100792.16;;;16.23;62.13
58471;BME280;44258;51.288;12.068;2022-10-30T08:21:46;100793.25;;;16.21;61.86
58471;BME280;44258;51.288;12.068;2022-10-30T08:24:15;100790.66;;;16.19;61.74
58471;BME280;44258;51.288;12.068;2022-10-30T08:26:42;100792.06;;;16.25;61.93
58471;BME280;44258;51.288;12.068;2022-10-30T08:29:08;100783.16;;;16.23;61.89
58471;BME280;44258;51.288;12.068;2022-10-30T08:31:35;100787.84;;;16.21;62.10
58471;BME280;44258;51.288;12.068;2022-10-30T08:34:02;100791.16;;;16.24;62.12
58471;BME280;44258;51.288;12.068;2022-10-30T08:36:29;100785.53;;;16.27;62.07
58471;BME280;44258;51.288;12.068;2022-10-30T08:38:57;100787.19;;;16.30;62.07
58471;BME280;44258;51.288;12.068;2022-10-30T08:41:24;100786.84;;;16.34;61.85
58471;BME280;44258;51.288;12.068;2022-10-30T08:43:50;100796.59;;;16.24;62.07
58471;BME280;44258;51.288;12.068;2022-10-30T08:46:17;100791.41;;;16.21;62.27
58471;BME280;44258;51.288;12.068;2022-10-30T08:48:43;100796.94;;;16.32;62.13
58471;BME280;44258;51.288;12.068;2022-10-30T08:51:10;100797.69;;;16.47;62.01
58471;BME280;44258;51.288;12.068;2022-10-30T08:53:37;100786.56;;;16.63;61.36
58471;BME280;44258;51.288;12.068;2022-10-30T08:56:05;100784.13;;;16.71;61.61
58471;BME280;44258;51.288;12.068;2022-10-30T08:58:32;100782.09;;;16.86;61.58
58471;BME280;44258;51.288;12.068;2022-10-30T09:00:58;100781.63;;;16.92;61.40
58471;BME280;44258;51.288;12.068;2022-10-30T09:03:25;100787.34;;;17.01;60.84
58471;BME280;44258;51.288;12.068;2022-10-30T09:05:52;100793.56;;;17.14;60.80
58471;BME280;44258;51.288;12.068;2022-10-30T09:08:18;100784.38;;;17.28;60.37
58471;BME280;44258;51.288;12.068;2022-10-30T09:10:45;100785.31;;;17.40;60.58
58471;BME280;44258;51.288;12.068;2022-10-30T09:13:13;100778.91;;;17.41;60.33
58471;BME280;44258;51.288;12.068;2022-10-30T09:15:40;100782.75;;;17.49;60.64
58471;BME280;44258;51.288;12.068;2022-10-30T09:18:07;100785.94;;;17.54;60.31
58471;BME280;44258;51.288;12.068;2022-10-30T09:20:34;100783.38;;;17.53;59.67
58471;BME280;44258;51.288;12.068;2022-10-30T09:23:01;100785.19;;;17.52;59.90
58471;BME280;44258;51.288;12.068;2022-10-30T09:25:27;100784.72;;;17.47;59.70
58471;BME280;44258;51.288;12.068;2022-10-30T09:27:54;100789.03;;;17.50;59.39
58471;BME280;44258;51.288;12.068;2022-10-30T09:30:22;100794.72;;;17.47;59.24
58471;BME280;44258;51.288;12.068;2022-10-30T09:32:53;100791.59;;;17.40;59.51
58471;BME280;44258;51.288;12.068;2022-10-30T09:35:20;100790.34;;;17.33;60.10
58471;BME280;44258;51.288;12.068;2022-10-30T09:37:46;100794.25;;;17.53;59.82
58471;BME280;44258;51.288;12.068;2022-10-30T09:40:20;100794.25;;;17.64;59.58
58471;BME280;44258;51.288;12.068;2022-10-30T09:42:48;100801.22;;;17.80;59.49
58471;BME280;44258;51.288;12.068;2022-10-30T09:45:25;100799.59;;;17.88;59.66
58471;BME280;44258;51.288;12.068;2022-10-30T09:48:03;100795.69;;;18.04;59.31
58471;BME280;44258;51.288;12.068;2022-10-30T09:50:38;100803.22;;;18.11;59.81
58471;BME280;44258;51.288;12.068;2022-10-30T09:53:14;100800.75;;;18.20;59.22
58471;BME280;44258;51.288;12.068;2022-10-30T09:55:46;100804.72;;;18.27;59.53
58471;BME280;44258;51.288;12.068;2022-10-30T09:58:21;100803.72;;;18.28;58.54
58471;BME280;44258;51.288;12.068;2022-10-30T10:00:57;100802.47;;;18.43;58.54
58471;BME280;44258;51.288;12.068;2022-10-30T10:03:38;100797.91;;;18.55;58.28
58471;BME280;44258;51.288;12.068;2022-10-30T10:06:12;100801.81;;;18.62;58.22
58471;BME280;44258;51.288;12.068;2022-10-30T10:08:45;100797.00;;;18.66;58.08
58471;BME280;44258;51.288;12.068;2022-10-30T10:11:15;100795.56;;;18.83;58.00
58471;BME280;44258;51.288;12.068;2022-10-30T10:13:47;100795.06;;;18.89;57.56
58471;BME280;44258;51.288;12.068;2022-10-30T10:16:18;100792.09;;;18.92;57.54
58471;BME280;44258;51.288;12.068;2022-10-30T10:18:47;100789.50;;;19.02;57.53
58471;BME280;44258;51.288;12.068;2022-10-30T10:21:22;100782.38;;;19.10;57.00
58471;BME280;44258;51.288;12.068;2022-10-30T10:23:50;100785.34;;;19.19;57.21
58471;BME280;44258;51.288;12.068;2022-10-30T10:26:26;100777.75;;;19.22;57.10
58471;BME280;44258;51.288;12.068;2022-10-30T10:29:04;100777.56;;;19.35;56.55
58471;BME280;44258;51.288;12.068;2022-10-30T10:31:42;100784.75;;;19.36;56.19
58471;BME280;44258;51.288;12.068;2022-10-30T10:34:28;100783.22;;;19.43;56.17
58471;BME280;44258;51.288;12.068;2022-10-30T10:37:09;100779.09;;;19.49;55.68
58471;BME280;44258;51.288;12.068;2022-10-30T10:39:54;100776.69;;;19.56;55.75
58471;BME280;44258;51.288;12.068;2022-10-30T10:42:34;100775.91;;;19.65;55.43
58471;BME280;44258;51.288;12.068;2022-10-30T10:45:19;100759.13;;;19.69;54.30
58471;BME280;44258;51.288;12.068;2022-10-30T10:48:13;100769.53;;;19.76;54.36
58471;BME280;44258;51.288;12.068;2022-10-30T10:50:47;100764.44;;;19.71;53.61
58471;BME280;44258;51.288;12.068;2022-10-30T10:53:20;100759.22;;;19.79;54.14
58471;BME280;44258;51.288;12.068;2022-10-30T10:55:50;100759.41;;;19.87;53.83
58471;BME280;44258;51.288;12.068;2022-10-30T10:58:24;100765.84;;;19.86;53.59
58471;BME280;44258;51.288;12.068;2022-10-30T11:00:52;100762.91;;;19.99;53.03
58471;BME280;44258;51.288;12.068;2022-10-30T11:03:31;100762.19;;;19.97;53.11
58471;BME280;44258;51.288;12.068;2022-10-30T11:06:10;100754.28;;;20.04;52.74
58471;BME280;44258;51.288;12.068;2022-10-30T11:08:43;100757.47;;;20.09;53.23
58471;BME280;44258;51.288;12.068;2022-10-30T11:11:10;100753.75;;;20.10;53.22
58471;BME280;44258;51.288;12.068;2022-10-30T11:13:38;100761.09;;;20.09;53.15
58471;BME280;44258;51.288;12.068;2022-10-30T11:16:12;100754.91;;;20.07;52.95
58471;BME280;44258;51.288;12.068;2022-10-30T11:18:43;100749.28;;;20.09;52.94
58471;BME280;44258;51.288;12.068;2022-10-30T11:21:16;100747.88;;;20.14;52.72
58471;BME280;44258;51.288;12.068;2022-10-30T11:23:45;100747.72;;;20.16;52.28
58471;BME280;44258;51.288;12.068;2022-10-30T11:26:26;100737.53;;;20.18;52.00
58471;BME280;44258;51.288;12.068;2022-10-30T11:29:00;100740.69;;;20.23;51.50
58471;BME280;44258;51.288;12.068;2022-10-30T11:31:29;100739.41;;;20.27;51.01
58471;BME280;44258;51.288;12.068;2022-10-30T11:34:26;100739.56;;;20.26;48.76
58471;BME280;44258;51.288;12.068;2022-10-30T11:36:55;100750.25;;;20.39;50.65
58471;BME280;44258;51.288;12.068;2022-10-30T11:39:23;100740.91;;;20.41;50.48
58471;BME280;44258;51.288;12.068;2022-10-30T11:41:58;100750.38;;;20.37;50.58
58471;BME280;44258;51.288;12.068;2022-10-30T11:44:28;100741.47;;;20.45;50.53
58471;BME280;44258;51.288;12.068;2022-10-30T11:46:56;100735.31;;;20.43;50.54
58471;BME280;44258;51.288;12.068;2022-10-30T11:49:34;100732.56;;;20.43;50.36
58471;BME280;44258;51.288;12.068;2022-10-30T11:52:02;100736.94;;;20.55;50.36
58471;BME280;44258;51.288;12.068;2022-10-30T11:54:34;100729.47;;;20.57;50.52
58471;BME280;44258;51.288;12.068;2022-10-30T11:57:01;100729.63;;;20.65;50.87
58471;BME280;44258;51.288;12.068;2022-10-30T11:59:29;100735.09;;;20.65;50.89
58471;BME280;44258;51.288;12.068;2022-10-30T12:01:57;100727.91;;;20.64;50.33
58471;BME280;44258;51.288;12.068;2022-10-30T12:04:26;100727.59;;;20.67;50.67
58471;BME280;44258;51.288;12.068;2022-10-30T12:07:06;100729.91;;;20.62;50.36
58471;BME280;44258;51.288;12.068;2022-10-30T12:09:42;100727.31;;;20.61;49.91
58471;BME280;44258;51.288;12.068;2022-10-30T12:12:10;100725.72;;;20.68;50.11
58471;BME280;44258;51.288;12.068;2022-10-30T12:14:37;100723.44;;;20.73;49.92
58471;BME280;44258;51.288;12.068;2022-10-30T12:17:06;100715.84;;;20.77;49.95
58471;BME280;44258;51.288;12.068;2022-10-30T12:19:33;100724.59;;;20.80;50.10
58471;BME280;44258;51.288;12.068;2022-10-30T12:22:01;100723.47;;;20.83;50.14
58471;BME280;44258;51.288;12.068;2022-10-30T12:24:29;100727.75;;;20.85;50.00
58471;BME280;44258;51.288;12.068;2022-10-30T12:27:01;100726.03;;;20.84;49.66
58471;BME280;44258;51.288;12.068;2022-10-30T12:29:38;100724.19;;;20.85;49.29
58471;BME280;44258;51.288;12.068;2022-10-30T12:32:08;100717.56;;;20.87;49.24
58471;BME280;44258;51.288;12.068;2022-10-30T12:34:39;100714.81;;;20.87;49.45
58471;BME280;44258;51.288;12.068;2022-10-30T12:37:15;100715.53;;;20.80;49.52
58471;BME280;44258;51.288;12.068;2022-10-30T12:39:54;100710.94;;;20.90;49.65
58471;BME280;44258;51.288;12.068;2022-10-30T12:42:22;100714.09;;;20.95;49.59
58471;BME280;44258;51.288;12.068;2022-10-30T12:44:54;100712.09;;;20.97;49.52
58471;BME280;44258;51.288;12.068;2022-10-30T12:47:28;100706.44;;;20.99;49.87
58471;BME280;44258;51.288;12.068;2022-10-30T12:50:01;100710.06;;;20.99;49.98
58471;BME280;44258;51.288;12.068;2022-10-30T12:52:34;100705.19;;;20.93;50.09
58471;BME280;44258;51.288;12.068;2022-10-30T12:55:13;100705.00;;;20.94;49.60